sensor_id;sensor_type;location;lat;lon;timestamp;pressure;altitude;pressure_sealevel;temperature;humidity
69574;BME280;62840;52.366;5.980;2023-07-24T00:00:56;100336.53;;;19.38;70.33
69574;BME280;62840;52.366;5.980;2023-07-24T00:03:22;100335.69;;;19.37;70.68
69574;BME280;62840;52.366;5.980;2023-07-24T00:05:48;100343.78;;;19.37;70.64
69574;BME280;62840;52.366;5.980;2023-07-24T00:08:14;100332.34;;;19.35;70.55
69574;BME280;62840;52.366;5.980;2023-07-24T00:10:39;100341.50;;;19.34;70.48
69574;BME280;62840;52.366;5.980;2023-07-24T00:13:05;100338.97;;;19.33;70.80
69574;BME280;62840;52.366;5.980;2023-07-24T00:15:31;100332.72;;;19.32;70.74
69574;BME280;62840;52.366;5.980;2023-07-24T00:17:59;100341.03;;;19.31;70.69
69574;BME280;62840;52.366;5.980;2023-07-24T00:20:25;100340.22;;;19.30;70.66
69574;BME280;62840;52.366;5.980;2023-07-24T00:22:51;100331.44;;;19.28;70.60
69574;BME280;62840;52.366;5.980;2023-07-24T00:25:16;100323.56;;;19.27;70.50
69574;BME280;62840;52.366;5.980;2023-07-24T00:27:42;100326.44;;;19.25;70.38
69574;BME280;62840;52.366;5.980;2023-07-24T00:30:09;100325.81;;;19.23;70.54
69574;BME280;62840;52.366;5.980;2023-07-24T00:32:35;100324.16;;;19.22;70.89
69574;BME280;62840;52.366;5.980;2023-07-24T00:35:04;100335.97;;;19.21;70.80
69574;BME280;62840;52.366;5.980;2023-07-24T00:37:31;100326.22;;;19.20;70.61
69574;BME280;62840;52.366;5.980;2023-07-24T00:39:56;100316.81;;;19.16;70.52
69574;BME280;62840;52.366;5.980;2023-07-24T00:42:22;100315.13;;;19.15;71.02
69574;BME280;62840;52.366;5.980;2023-07-24T00:44:48;100318.88;;;19.14;71.02
69574;BME280;62840;52.366;5.980;2023-07-24T00:47:14;100321.75;;;19.12;71.09
69574;BME280;62840;52.366;5.980;2023-07-24T00:49:40;100318.41;;;19.10;70.70
69574;BME280;62840;52.366;5.980;2023-07-24T00:52:09;100313.88;;;19.11;71.00
69574;BME280;62840;52.366;5.980;2023-07-24T00:54:37;100305.13;;;19.09;71.05
69574;BME280;62840;52.366;5.980;2023-07-24T00:57:04;100303.44;;;19.08;70.56
69574;BME280;62840;52.366;5.980;2023-07-24T00:59:31;100300.09;;;19.06;70.89
69574;BME280;62840;52.366;5.980;2023-07-24T01:01:58;100296.75;;;19.04;70.55
69574;BME280;62840;52.366;5.980;2023-07-24T01:04:24;100295.09;;;19.03;70.56
69574;BME280;62840;52.366;5.980;2023-07-24T01:06:50;100288.84;;;19.02;70.70
69574;BME280;62840;52.366;5.980;2023-07-24T01:09:19;100280.09;;;19.00;71.03
69574;BME280;62840;52.366;5.980;2023-07-24T01:11:46;100275.94;;;18.98;70.88
69574;BME280;62840;52.366;5.980;2023-07-24T01:14:21;100269.66;;;18.97;70.99
69574;BME280;62840;52.366;5.980;2023-07-24T01:16:53;100258.44;;;18.93;70.89
69574;BME280;62840;52.366;5.980;2023-07-24T01:19:31;100264.19;;;18.90;70.77
69574;BME280;62840;52.366;5.980;2023-07-24T01:22:15;100263.78;;;18.87;71.00
69574;BME280;62840;52.366;5.980;2023-07-24T01:25:00;100254.19;;;18.84;71.13
69574;BME280;62840;52.366;5.980;2023-07-24T01:27:33;100252.91;;;18.80;70.93
69574;BME280;62840;52.366;5.980;2023-07-24T01:29:59;100258.50;;;18.79;71.23
69574;BME280;62840;52.366;5.980;2023-07-24T01:32:24;100264.13;;;18.77;71.24
69574;BME280;62840;52.366;5.980;2023-07-24T01:34:51;100263.25;;;18.76;71.11
69574;BME280;62840;52.366;5.980;2023-07-24T01:37:20;100262.63;;;18.74;71.37
69574;BME280;62840;52.366;5.980;2023-07-24T01:39:47;100262.84;;;18.73;71.38
69574;BME280;62840;52.366;5.980;2023-07-24T01:42:15;100263.84;;;18.72;71.03
69574;BME280;62840;52.366;5.980;2023-07-24T01:44:44;100259.50;;;18.71;71.43
69574;BME280;62840;52.366;5.980;2023-07-24T01:47:10;100252.41;;;18.70;71.21
69574;BME280;62840;52.366;5.980;2023-07-24T01:49:36;100244.28;;;18.70;70.96
69574;BME280;62840;52.366;5.980;2023-07-24T01:52:02;100252.41;;;18.70;70.92
69574;BME280;62840;52.366;5.980;2023-07-24T01:54:29;100250.75;;;18.69;70.81
69574;BME280;62840;52.366;5.980;2023-07-24T01:56:54;100254.44;;;18.68;71.17
69574;BME280;62840;52.366;5.980;2023-07-24T01:59:20;100263.56;;;18.67;71.18
69574;BME280;62840;52.366;5.980;2023-07-24T02:01:48;100252.78;;;18.67;71.15
69574;BME280;62840;52.366;5.980;2023-07-24T02:04:14;100249.41;;;18.65;71.27
69574;BME280;62840;52.366;5.980;2023-07-24T02:06:40;100246.06;;;18.63;70.87
69574;BME280;62840;52.366;5.980;2023-07-24T02:09:06;100242.72;;;18.61;71.05
69574;BME280;62840;52.366;5.980;2023-07-24T02:11:31;100242.72;;;18.61;71.16
69574;BME280;62840;52.366;5.980;2023-07-24T02:13:57;100236.50;;;18.60;71.11
69574;BME280;62840;52.366;5.980;2023-07-24T02:16:23;100241.06;;;18.60;71.09
69574;BME280;62840;52.366;5.980;2023-07-24T02:18:51;100240.44;;;18.58;71.33
69574;BME280;62840;52.366;5.980;2023-07-24T02:21:17;100236.03;;;18.56;71.20
69574;BME280;62840;52.366;5.980;2023-07-24T02:23:42;100234.38;;;18.55;71.47
69574;BME280;62840;52.366;5.980;2023-07-24T02:26:08;100222.75;;;18.55;71.57
69574;BME280;62840;52.366;5.980;2023-07-24T02:28:34;100216.53;;;18.54;71.59
69574;BME280;62840;52.366;5.980;2023-07-24T02:31:00;100209.44;;;18.53;71.12
69574;BME280;62840;52.366;5.980;2023-07-24T02:33:25;100212.53;;;18.50;71.47
69574;BME280;62840;52.366;5.980;2023-07-24T02:35:54;100227.06;;;18.49;71.57
69574;BME280;62840;52.366;5.980;2023-07-24T02:38:19;100217.28;;;18.48;70.96
69574;BME280;62840;52.366;5.980;2023-07-24T02:40:45;100223.06;;;18.45;71.47
69574;BME280;62840;52.366;5.980;2023-07-24T02:43:11;100225.16;;;18.43;71.38
69574;BME280;62840;52.366;5.980;2023-07-24T02:45:37;100221.81;;;18.41;71.38
69574;BME280;62840;52.366;5.980;2023-07-24T02:48:03;100218.47;;;18.39;71.17
69574;BME280;62840;52.366;5.980;2023-07-24T02:50:30;100225.91;;;18.37;71.26
69574;BME280;62840;52.366;5.980;2023-07-24T02:52:59;100229.63;;;18.36;71.65
69574;BME280;62840;52.366;5.980;2023-07-24T02:55:24;100225.28;;;18.35;71.69
69574;BME280;62840;52.366;5.980;2023-07-24T02:57:50;100221.94;;;18.33;71.41
69574;BME280;62840;52.366;5.980;2023-07-24T03:00:16;100222.97;;;18.32;71.72
69574;BME280;62840;52.366;5.980;2023-07-24T03:02:42;100222.97;;;18.32;71.84
69574;BME280;62840;52.366;5.980;2023-07-24T03:05:08;100221.28;;;18.31;71.48
69574;BME280;62840;52.366;5.980;2023-07-24T03:07:34;100221.28;;;18.31;71.75
69574;BME280;62840;52.366;5.980;2023-07-24T03:10:03;100226.03;;;18.29;71.63
69574;BME280;62840;52.366;5.980;2023-07-24T03:12:30;100220.63;;;18.29;71.73
69574;BME280;62840;52.366;5.980;2023-07-24T03:14:56;100229.38;;;18.31;71.68
69574;BME280;62840;52.366;5.980;2023-07-24T03:17:22;100222.09;;;18.31;71.94
69574;BME280;62840;52.366;5.980;2023-07-24T03:19:48;100210.47;;;18.31;71.67
69574;BME280;62840;52.366;5.980;2023-07-24T03:22:14;100212.16;;;18.32;71.71
69574;BME280;62840;52.366;5.980;2023-07-24T03:24:40;100205.09;;;18.31;71.67
69574;BME280;62840;52.366;5.980;2023-07-24T03:27:08;100214.88;;;18.32;72.04
69574;BME280;62840;52.366;5.980;2023-07-24T03:29:34;100222.09;;;18.31;71.81
69574;BME280;62840;52.366;5.980;2023-07-24T03:32:00;100217.56;;;18.32;71.77
69574;BME280;62840;52.366;5.980;2023-07-24T03:34:26;100206.78;;;18.32;71.95
69574;BME280;62840;52.366;5.980;2023-07-24T03:36:51;100204.69;;;18.34;71.90
69574;BME280;62840;52.366;5.980;2023-07-24T03:39:17;100199.28;;;18.34;72.13
69574;BME280;62840;52.366;5.980;2023-07-24T03:41:43;100182.91;;;18.35;72.06
69574;BME280;62840;52.366;5.980;2023-07-24T03:44:11;100183.09;;;18.34;71.91
69574;BME280;62840;52.366;5.980;2023-07-24T03:46:37;100184.78;;;18.35;71.65
69574;BME280;62840;52.366;5.980;2023-07-24T03:49:02;100173.97;;;18.35;71.77
69574;BME280;62840;52.366;5.980;2023-07-24T03:51:28;100175.63;;;18.36;71.88
69574;BME280;62840;52.366;5.980;2023-07-24T03:53:54;100174.63;;;18.37;71.87
69574;BME280;62840;52.366;5.980;2023-07-24T03:56:20;100180.03;;;18.37;71.82
69574;BME280;62840;52.366;5.980;2023-07-24T03:58:45;100178.97;;;18.38;72.38
69574;BME280;62840;52.366;5.980;2023-07-24T04:01:14;100180.66;;;18.39;71.92
69574;BME280;62840;52.366;5.980;2023-07-24T04:03:39;100193.13;;;18.40;71.96
69574;BME280;62840;52.366;5.980;2023-07-24T04:06:05;100185.03;;;18.40;72.02
69574;BME280;62840;52.366;5.980;2023-07-24T04:08:31;100180.66;;;18.39;72.38
69574;BME280;62840;52.366;5.980;2023-07-24T04:10:57;100181.69;;;18.38;72.39
69574;BME280;62840;52.366;5.980;2023-07-24T04:13:23;100178.97;;;18.38;72.13
69574;BME280;62840;52.366;5.980;2023-07-24T04:15:48;100188.13;;;18.37;72.29
69574;BME280;62840;52.366;5.980;2023-07-24T04:18:17;100190.19;;;18.35;72.40
69574;BME280;62840;52.366;5.980;2023-07-24T04:20:42;100179.38;;;18.35;72.51
69574;BME280;62840;52.366;5.980;2023-07-24T04:23:08;100173.16;;;18.34;72.52
69574;BME280;62840;52.366;5.980;2023-07-24T04:25:34;100171.47;;;18.33;72.79
69574;BME280;62840;52.366;5.980;2023-07-24T04:27:59;100170.63;;;18.33;72.67
69574;BME280;62840;52.366;5.980;2023-07-24T04:30:25;100176.84;;;18.33;72.61
69574;BME280;62840;52.366;5.980;2023-07-24T04:32:51;100178.72;;;18.33;72.48
69574;BME280;62840;52.366;5.980;2023-07-24T04:35:19;100176.03;;;18.33;72.69
69574;BME280;62840;52.366;5.980;2023-07-24T04:37:45;100172.28;;;18.34;72.95
69574;BME280;62840;52.366;5.980;2023-07-24T04:40:12;100170.63;;;18.33;73.05
69574;BME280;62840;52.366;5.980;2023-07-24T04:42:38;100179.78;;;18.32;72.71
69574;BME280;62840;52.366;5.980;2023-07-24T04:45:04;100179.78;;;18.32;72.55
69574;BME280;62840;52.366;5.980;2023-07-24T04:47:31;100190.56;;;18.32;72.99
69574;BME280;62840;52.366;5.980;2023-07-24T04:49:56;100170.63;;;18.33;72.78
69574;BME280;62840;52.366;5.980;2023-07-24T04:52:25;100176.84;;;18.33;72.70
69574;BME280;62840;52.366;5.980;2023-07-24T04:54:50;100176.84;;;18.33;72.81
69574;BME280;62840;52.366;5.980;2023-07-24T04:57:16;100170.63;;;18.33;73.06
69574;BME280;62840;52.366;5.980;2023-07-24T04:59:42;100168.97;;;18.32;72.82
69574;BME280;62840;52.366;5.980;2023-07-24T05:02:08;100162.53;;;18.33;72.74
69574;BME280;62840;52.366;5.980;2023-07-24T05:04:33;100177.69;;;18.34;72.88
69574;BME280;62840;52.366;5.980;2023-07-24T05:06:59;100172.28;;;18.34;73.26
69574;BME280;62840;52.366;5.980;2023-07-24T05:09:27;100163.19;;;18.35;73.37
69574;BME280;62840;52.366;5.980;2023-07-24T05:11:53;100162.34;;;18.34;73.12
69574;BME280;62840;52.366;5.980;2023-07-24T05:14:19;100163.19;;;18.35;73.22
69574;BME280;62840;52.366;5.980;2023-07-24T05:16:45;100169.22;;;18.37;73.04
69574;BME280;62840;52.366;5.980;2023-07-24T05:19:10;100174.63;;;18.37;73.37
69574;BME280;62840;52.366;5.980;2023-07-24T05:21:36;100175.25;;;18.39;73.17
69574;BME280;62840;52.366;5.980;2023-07-24T05:24:02;100182.31;;;18.40;73.14
69574;BME280;62840;52.366;5.980;2023-07-24T05:26:31;100176.91;;;18.40;73.04
69574;BME280;62840;52.366;5.980;2023-07-24T05:28:56;100181.50;;;18.40;73.24
69574;BME280;62840;52.366;5.980;2023-07-24T05:31:22;100170.69;;;18.40;73.41
69574;BME280;62840;52.366;5.980;2023-07-24T05:33:48;100184.19;;;18.40;73.42
69574;BME280;62840;52.366;5.980;2023-07-24T05:36:14;100182.31;;;18.40;73.32
69574;BME280;62840;52.366;5.980;2023-07-24T05:38:39;100186.88;;;18.40;73.05
69574;BME280;62840;52.366;5.980;2023-07-24T05:41:05;100191.47;;;18.39;73.09
69574;BME280;62840;52.366;5.980;2023-07-24T05:43:33;100191.47;;;18.39;72.96
69574;BME280;62840;52.366;5.980;2023-07-24T05:45:59;100185.22;;;18.39;73.37
69574;BME280;62840;52.366;5.980;2023-07-24T05:48:25;100187.72;;;18.40;73.33
69574;BME280;62840;52.366;5.980;2023-07-24T05:50:51;100186.88;;;18.40;72.77
69574;BME280;62840;52.366;5.980;2023-07-24T05:53:17;100184.00;;;18.41;73.06
69574;BME280;62840;52.366;5.980;2023-07-24T05:55:43;100185.66;;;18.42;72.85
69574;BME280;62840;52.366;5.980;2023-07-24T05:58:09;100193.56;;;18.44;72.91
69574;BME280;62840;52.366;5.980;2023-07-24T06:00:37;100182.56;;;18.45;72.84
69574;BME280;62840;52.366;5.980;2023-07-24T06:03:03;100189.66;;;18.46;73.06
69574;BME280;62840;52.366;5.980;2023-07-24T06:05:29;100186.94;;;18.46;73.13
69574;BME280;62840;52.366;5.980;2023-07-24T06:07:55;100188.59;;;18.47;73.46
69574;BME280;62840;52.366;5.980;2023-07-24T06:10:21;100181.16;;;18.49;72.97
69574;BME280;62840;52.366;5.980;2023-07-24T06:12:46;100186.53;;;18.49;73.04
69574;BME280;62840;52.366;5.980;2023-07-24T06:15:12;100182.84;;;18.50;72.94
69574;BME280;62840;52.366;5.980;2023-07-24T06:17:40;100185.53;;;18.50;72.70
69574;BME280;62840;52.366;5.980;2023-07-24T06:20:07;100184.50;;;18.51;72.94
69574;BME280;62840;52.366;5.980;2023-07-24T06:22:33;100194.28;;;18.52;73.29
69574;BME280;62840;52.366;5.980;2023-07-24T06:24:59;100185.13;;;18.53;72.91
69574;BME280;62840;52.366;5.980;2023-07-24T06:27:24;100187.44;;;18.56;73.16
69574;BME280;62840;52.366;5.980;2023-07-24T06:29:50;100178.31;;;18.58;73.15
69574;BME280;62840;52.366;5.980;2023-07-24T06:32:16;100185.38;;;18.59;73.07
69574;BME280;62840;52.366;5.980;2023-07-24T06:34:44;100183.72;;;18.58;72.67
69574;BME280;62840;52.366;5.980;2023-07-24T06:37:10;100189.75;;;18.60;72.53
69574;BME280;62840;52.366;5.980;2023-07-24T06:39:36;100197.88;;;18.60;72.82
69574;BME280;62840;52.366;5.980;2023-07-24T06:42:02;100193.09;;;18.62;72.61
69574;BME280;62840;52.366;5.980;2023-07-24T06:44:28;100194.75;;;18.63;72.66
69574;BME280;62840;52.366;5.980;2023-07-24T06:46:54;100197.47;;;18.63;72.49
69574;BME280;62840;52.366;5.980;2023-07-24T06:49:19;100188.34;;;18.64;72.86
69574;BME280;62840;52.366;5.980;2023-07-24T06:51:48;100191.69;;;18.66;72.59
69574;BME280;62840;52.366;5.980;2023-07-24T06:54:13;100198.38;;;18.70;72.67
69574;BME280;62840;52.366;5.980;2023-07-24T06:56:39;100193.25;;;18.75;72.62
69574;BME280;62840;52.366;5.980;2023-07-24T06:59:05;100186.38;;;18.79;72.72
69574;BME280;62840;52.366;5.980;2023-07-24T07:01:31;100193.47;;;18.80;72.33
69574;BME280;62840;52.366;5.980;2023-07-24T07:03:57;100191.41;;;18.82;71.95
69574;BME280;62840;52.366;5.980;2023-07-24T07:06:22;100196.00;;;18.82;72.20
69574;BME280;62840;52.366;5.980;2023-07-24T07:08:51;100201.19;;;18.83;72.14
69574;BME280;62840;52.366;5.980;2023-07-24T07:11:16;100192.69;;;18.86;72.38
69574;BME280;62840;52.366;5.980;2023-07-24T07:13:42;100192.28;;;18.89;72.02
69574;BME280;62840;52.366;5.980;2023-07-24T07:16:08;100199.16;;;18.92;72.40
69574;BME280;62840;52.366;5.980;2023-07-24T07:18:34;100193.56;;;18.93;71.64
69574;BME280;62840;52.366;5.980;2023-07-24T07:20:59;100189.44;;;18.98;71.50
69574;BME280;62840;52.366;5.980;2023-07-24T07:23:25;100190.28;;;18.98;71.43
69574;BME280;62840;52.366;5.980;2023-07-24T07:25:53;100191.09;;;18.99;71.59
69574;BME280;62840;52.366;5.980;2023-07-24T07:28:19;100185.69;;;18.99;71.60
69574;BME280;62840;52.366;5.980;2023-07-24T07:30:45;100190.47;;;18.96;71.14
69574;BME280;62840;52.366;5.980;2023-07-24T07:33:11;100191.50;;;18.95;71.21
69574;BME280;62840;52.366;5.980;2023-07-24T07:35:37;100200.63;;;18.94;71.46
69574;BME280;62840;52.366;5.980;2023-07-24T07:38:03;100202.31;;;18.95;70.88
69574;BME280;62840;52.366;5.980;2023-07-24T07:40:29;100197.75;;;18.96;70.96
69574;BME280;62840;52.366;5.980;2023-07-24T07:42:58;100204.81;;;18.97;71.23
69574;BME280;62840;52.366;5.980;2023-07-24T07:45:24;100201.09;;;18.98;70.58
69574;BME280;62840;52.366;5.980;2023-07-24T07:47:50;100194.63;;;18.99;70.90
69574;BME280;62840;52.366;5.980;2023-07-24T07:50:15;100190.09;;;19.00;70.72
69574;BME280;62840;52.366;5.980;2023-07-24T07:52:41;100189.03;;;19.01;70.51
69574;BME280;62840;52.366;5.980;2023-07-24T07:55:08;100189.03;;;19.01;70.95
69574;BME280;62840;52.366;5.980;2023-07-24T07:57:34;100186.34;;;19.01;70.91
69574;BME280;62840;52.366;5.980;2023-07-24T08:00:03;100193.63;;;19.00;70.63
69574;BME280;62840;52.366;5.980;2023-07-24T08:02:30;100189.03;;;19.01;70.77
69574;BME280;62840;52.366;5.980;2023-07-24T08:04:56;100185.28;;;19.02;70.63
69574;BME280;62840;52.366;5.980;2023-07-24T08:07:22;100181.56;;;19.03;70.58
69574;BME280;62840;52.366;5.980;2023-07-24T08:09:47;100175.13;;;19.04;70.26
69574;BME280;62840;52.366;5.980;2023-07-24T08:12:13;100177.44;;;19.07;70.30
69574;BME280;62840;52.366;5.980;2023-07-24T08:14:39;100174.34;;;19.10;70.44
69574;BME280;62840;52.366;5.980;2023-07-24T08:17:07;100171.25;;;19.13;69.96
69574;BME280;62840;52.366;5.980;2023-07-24T08:19:33;100162.09;;;19.14;70.23
69574;BME280;62840;52.366;5.980;2023-07-24T08:21:59;100170.84;;;19.16;69.70
69574;BME280;62840;52.366;5.980;2023-07-24T08:24:24;100176.25;;;19.16;69.91
69574;BME280;62840;52.366;5.980;2023-07-24T08:26:50;100165.44;;;19.16;69.54
69574;BME280;62840;52.366;5.980;2023-07-24T08:29:16;100166.06;;;19.18;69.52
69574;BME280;62840;52.366;5.980;2023-07-24T08:31:42;100162.72;;;19.16;69.31
69574;BME280;62840;52.366;5.980;2023-07-24T08:34:10;100163.38;;;19.18;69.22
69574;BME280;62840;52.366;5.980;2023-07-24T08:36:36;100169.41;;;19.20;69.14
69574;BME280;62840;52.366;5.980;2023-07-24T08:39:01;100165.66;;;19.21;69.12
69574;BME280;62840;52.366;5.980;2023-07-24T08:41:27;100167.97;;;19.24;68.43
69574;BME280;62840;52.366;5.980;2023-07-24T08:43:53;100171.53;;;19.31;68.40
69574;BME280;62840;52.366;5.980;2023-07-24T08:46:19;100172.81;;;19.35;68.50
69574;BME280;62840;52.366;5.980;2023-07-24T08:48:47;100168.47;;;19.41;68.83
69574;BME280;62840;52.366;5.980;2023-07-24T08:51:15;100174.72;;;19.48;68.36
69574;BME280;62840;52.366;5.980;2023-07-24T08:53:42;100174.13;;;19.53;68.33
69574;BME280;62840;52.366;5.980;2023-07-24T08:56:10;100169.00;;;19.58;68.25
69574;BME280;62840;52.366;5.980;2023-07-24T08:58:37;100162.75;;;19.64;68.31
69574;BME280;62840;52.366;5.980;2023-07-24T09:01:03;100163.59;;;19.71;67.98
69574;BME280;62840;52.366;5.980;2023-07-24T09:03:30;100167.19;;;19.78;67.86
69574;BME280;62840;52.366;5.980;2023-07-24T09:05:57;100165.31;;;19.86;67.87
69574;BME280;62840;52.366;5.980;2023-07-24T09:08:32;100162.41;;;19.94;67.52
69574;BME280;62840;52.366;5.980;2023-07-24T09:10:59;100159.31;;;19.97;67.69
69574;BME280;62840;52.366;5.980;2023-07-24T09:13:25;100159.94;;;19.99;67.17
69574;BME280;62840;52.366;5.980;2023-07-24T09:15:52;100156.81;;;20.02;67.03
69574;BME280;62840;52.366;5.980;2023-07-24T09:18:18;100160.97;;;20.05;67.41
69574;BME280;62840;52.366;5.980;2023-07-24T09:20:44;100157.00;;;20.07;67.31
69574;BME280;62840;52.366;5.980;2023-07-24T09:23:11;100156.19;;;20.07;66.64
69574;BME280;62840;52.366;5.980;2023-07-24T09:25:42;100158.06;;;20.06;66.82
69574;BME280;62840;52.366;5.980;2023-07-24T09:28:09;100157.00;;;20.07;66.65
69574;BME280;62840;52.366;5.980;2023-07-24T09:30:36;100150.16;;;20.11;67.09
69574;BME280;62840;52.366;5.980;2023-07-24T09:33:03;100148.28;;;20.18;67.02
69574;BME280;62840;52.366;5.980;2023-07-24T09:35:29;100144.13;;;20.23;66.61
69574;BME280;62840;52.366;5.980;2023-07-24T09:38:02;100145.81;;;20.30;66.07
69574;BME280;62840;52.366;5.980;2023-07-24T09:40:40;100141.22;;;20.37;66.24
69574;BME280;62840;52.366;5.980;2023-07-24T09:43:17;100129.13;;;20.40;65.62
69574;BME280;62840;52.366;5.980;2023-07-24T09:45:44;100132.50;;;20.42;65.94
69574;BME280;62840;52.366;5.980;2023-07-24T09:48:12;100132.50;;;20.42;65.46
69574;BME280;62840;52.366;5.980;2023-07-24T09:50:39;100134.56;;;20.40;65.48
69574;BME280;62840;52.366;5.980;2023-07-24T09:53:08;100130.41;;;20.44;65.82
69574;BME280;62840;52.366;5.980;2023-07-24T09:55:45;100112.09;;;20.46;65.27
69574;BME280;62840;52.366;5.980;2023-07-24T09:58:15;100100.00;;;20.49;65.66
69574;BME280;62840;52.366;5.980;2023-07-24T10:00:44;100121.22;;;20.52;65.35
69574;BME280;62840;52.366;5.980;2023-07-24T10:03:12;100121.66;;;20.55;65.44
69574;BME280;62840;52.366;5.980;2023-07-24T10:05:39;100117.50;;;20.59;65.64
69574;BME280;62840;52.366;5.980;2023-07-24T10:08:05;100125.19;;;20.62;65.25
69574;BME280;62840;52.366;5.980;2023-07-24T10:10:32;100118.72;;;20.63;65.13
69574;BME280;62840;52.366;5.980;2023-07-24T10:13:01;100109.56;;;20.65;65.23
69574;BME280;62840;52.366;5.980;2023-07-24T10:15:27;100110.38;;;20.65;65.07
69574;BME280;62840;52.366;5.980;2023-07-24T10:18:01;100105.78;;;20.66;65.13
69574;BME280;62840;52.366;5.980;2023-07-24T10:20:32;100104.13;;;20.65;65.08
69574;BME280;62840;52.366;5.980;2023-07-24T10:23:00;100112.66;;;20.61;64.55
69574;BME280;62840;52.366;5.980;2023-07-24T10:25:29;100121.22;;;20.58;64.81
69574;BME280;62840;52.366;5.980;2023-07-24T10:27:56;100130.41;;;20.57;64.81
69574;BME280;62840;52.366;5.980;2023-07-24T10:30:29;100124.13;;;20.57;64.95
69574;BME280;62840;52.366;5.980;2023-07-24T10:33:03;100124.38;;;20.55;64.53
69574;BME280;62840;52.366;5.980;2023-07-24T10:35:37;100123.53;;;20.55;64.57
69574;BME280;62840;52.366;5.980;2023-07-24T10:38:04;100119.56;;;20.57;64.63
69574;BME280;62840;52.366;5.980;2023-07-24T10:40:29;100101.81;;;20.61;64.67
69574;BME280;62840;52.366;5.980;2023-07-24T10:43:04;100102.06;;;20.67;65.02
69574;BME280;62840;52.366;5.980;2023-07-24T10:45:42;100095.34;;;20.76;64.76
69574;BME280;62840;52.366;5.980;2023-07-24T10:48:15;100101.59;;;20.83;64.88
69574;BME280;62840;52.366;5.980;2023-07-24T10:50:42;100109.91;;;20.88;65.03
69574;BME280;62840;52.366;5.980;2023-07-24T10:53:09;100098.66;;;20.91;65.24
69574;BME280;62840;52.366;5.980;2023-07-24T10:55:35;100100.31;;;20.92;65.04
69574;BME280;62840;52.366;5.980;2023-07-24T10:58:05;100083.63;;;20.95;64.85
69574;BME280;62840;52.366;5.980;2023-07-24T11:00:31;100085.28;;;20.96;64.18
69574;BME280;62840;52.366;5.980;2023-07-24T11:02:57;100094.03;;;20.98;64.38
69574;BME280;62840;52.366;5.980;2023-07-24T11:05:23;100097.38;;;21.00;63.80
69574;BME280;62840;52.366;5.980;2023-07-24T11:07:49;100102.56;;;21.02;64.01
69574;BME280;62840;52.366;5.980;2023-07-24T11:10:16;100098.63;;;21.04;63.72
69574;BME280;62840;52.366;5.980;2023-07-24T11:12:41;100094.84;;;21.06;63.76
69574;BME280;62840;52.366;5.980;2023-07-24T11:15:10;100104.22;;;21.10;63.58
69574;BME280;62840;52.366;5.980;2023-07-24T11:17:38;100103.16;;;21.11;63.47
69574;BME280;62840;52.366;5.980;2023-07-24T11:20:08;100097.75;;;21.11;63.39
69574;BME280;62840;52.366;5.980;2023-07-24T11:22:35;100102.53;;;21.09;63.95
69574;BME280;62840;52.366;5.980;2023-07-24T11:25:01;100101.50;;;21.10;63.78
69574;BME280;62840;52.366;5.980;2023-07-24T11:27:27;100109.03;;;21.08;63.56
69574;BME280;62840;52.366;5.980;2023-07-24T11:29:52;100105.06;;;21.03;63.38
69574;BME280;62840;52.366;5.980;2023-07-24T11:32:21;100100.09;;;21.00;62.98
69574;BME280;62840;52.366;5.980;2023-07-24T11:34:49;100097.13;;;21.02;63.44
69574;BME280;62840;52.366;5.980;2023-07-24T11:37:16;100114.44;;;21.08;63.48
69574;BME280;62840;52.366;5.980;2023-07-24T11:39:42;100115.25;;;21.15;63.16
69574;BME280;62840;52.366;5.980;2023-07-24T11:42:08;100107.94;;;21.22;62.47
69574;BME280;62840;52.366;5.980;2023-07-24T11:44:34;100112.72;;;21.27;62.05
69574;BME280;62840;52.366;5.980;2023-07-24T11:47:00;100111.47;;;21.29;62.40
69574;BME280;62840;52.366;5.980;2023-07-24T11:49:30;100111.03;;;21.32;62.54
69574;BME280;62840;52.366;5.980;2023-07-24T11:52:00;100113.31;;;21.35;61.83
69574;BME280;62840;52.366;5.980;2023-07-24T11:54:28;100108.09;;;21.40;62.34
69574;BME280;62840;52.366;5.980;2023-07-24T11:56:54;100111.59;;;21.48;61.75
69574;BME280;62840;52.366;5.980;2023-07-24T11:59:20;100103.63;;;21.53;61.54
69574;BME280;62840;52.366;5.980;2023-07-24T12:01:45;100094.44;;;21.54;61.03
69574;BME280;62840;52.366;5.980;2023-07-24T12:04:12;100096.72;;;21.57;61.36
69574;BME280;62840;52.366;5.980;2023-07-24T12:06:41;100102.78;;;21.59;61.53
69574;BME280;62840;52.366;5.980;2023-07-24T12:09:07;100109.66;;;21.61;61.77
69574;BME280;62840;52.366;5.980;2023-07-24T12:11:33;100099.63;;;21.62;61.25
69574;BME280;62840;52.366;5.980;2023-07-24T12:14:05;100099.44;;;21.57;60.44
69574;BME280;62840;52.366;5.980;2023-07-24T12:16:33;100107.41;;;21.52;60.30
69574;BME280;62840;52.366;5.980;2023-07-24T12:19:00;100090.94;;;21.47;60.32
69574;BME280;62840;52.366;5.980;2023-07-24T12:21:25;100089.69;;;21.42;60.32
69574;BME280;62840;52.366;5.980;2023-07-24T12:23:54;100083.84;;;21.45;60.63
69574;BME280;62840;52.366;5.980;2023-07-24T12:26:19;100073.78;;;21.53;61.04
69574;BME280;62840;52.366;5.980;2023-07-24T12:28:45;100077.69;;;21.63;60.67
69574;BME280;62840;52.366;5.980;2023-07-24T12:31:11;100071.97;;;21.72;60.81
69574;BME280;62840;52.366;5.980;2023-07-24T12:33:37;100065.31;;;21.74;60.88
69574;BME280;62840;52.366;5.980;2023-07-24T12:36:03;100068.19;;;21.79;61.03
69574;BME280;62840;52.366;5.980;2023-07-24T12:38:29;100080.28;;;21.83;60.67
69574;BME280;62840;52.366;5.980;2023-07-24T12:40:58;100081.94;;;21.84;60.26
69574;BME280;62840;52.366;5.980;2023-07-24T12:43:23;100083.66;;;21.79;59.92
69574;BME280;62840;52.366;5.980;2023-07-24T12:45:49;100096.41;;;21.72;59.85
69574;BME280;62840;52.366;5.980;2023-07-24T12:48:15;100100.84;;;21.66;59.54